createdAt,value
2018-12-11T00:02:07.259Z,1.40
2018-12-11T00:04:36.896Z,1.40
2018-12-11T00:07:07.059Z,1.40
2018-12-11T00:09:36.332Z,1.50
2018-12-11T00:12:05.701Z,1.60
2018-12-11T00:14:34.978Z,1.70
2018-12-11T00:17:04.529Z,1.80
2018-12-11T00:19:33.817Z,1.80
2018-12-11T00:22:03.587Z,2.00
2018-12-11T00:24:32.931Z,1.90
2018-12-11T00:27:02.316Z,2.00
2018-12-11T00:29:31.615Z,0.60
2018-12-11T00:32:00.917Z,2.00
2018-12-11T00:34:30.264Z,2.00
2018-12-11T00:36:59.540Z,1.90
2018-12-11T00:39:28.936Z,1.90
2018-12-11T00:41:58.221Z,1.90
2018-12-11T00:44:27.543Z,1.90
2018-12-11T00:46:56.833Z,1.80
2018-12-11T00:49:26.139Z,1.80
2018-12-11T00:51:55.411Z,1.80
2018-12-11T00:54:24.655Z,1.90
2018-12-11T00:56:53.908Z,1.90
2018-12-11T00:59:23.205Z,1.90
2018-12-11T01:01:52.535Z,1.90
2018-12-11T01:04:21.912Z,1.90
2018-12-11T01:06:51.215Z,2.00
2018-12-11T01:09:20.632Z,2.00
2018-12-11T01:11:49.880Z,2.00
2018-12-11T01:14:19.156Z,2.00
2018-12-11T01:16:48.414Z,2.10
2018-12-11T01:19:17.869Z,2.10
2018-12-11T01:21:47.144Z,2.10
2018-12-11T01:24:16.693Z,2.20
2018-12-11T01:26:46.118Z,2.20
2018-12-11T01:29:15.487Z,2.20
2018-12-11T01:31:44.791Z,2.20
2018-12-11T01:34:14.177Z,2.20
2018-12-11T01:36:43.492Z,2.20
2018-12-11T01:39:12.784Z,2.20
2018-12-11T01:41:42.037Z,2.20
2018-12-11T01:44:11.449Z,2.20
2018-12-11T01:46:40.703Z,2.20
2018-12-11T01:49:10.233Z,2.30
2018-12-11T01:51:39.533Z,2.30
2018-12-11T01:54:08.902Z,2.30
2018-12-11T01:56:38.359Z,2.30
2018-12-11T01:59:07.975Z,2.40
2018-12-11T02:01:37.360Z,2.40
2018-12-11T02:04:06.856Z,2.40
2018-12-11T02:06:36.192Z,2.40
2018-12-11T02:09:07.640Z,2.40
2018-12-11T02:11:37.054Z,2.40
2018-12-11T02:14:06.414Z,2.40
2018-12-11T02:16:35.746Z,2.40
2018-12-11T02:19:05.062Z,2.40
2018-12-11T02:21:34.324Z,2.50
2018-12-11T02:24:03.732Z,2.50
2018-12-11T02:26:33.124Z,2.50
2018-12-11T02:29:02.605Z,2.50
2018-12-11T02:34:01.017Z,2.50
2018-12-11T02:36:30.626Z,2.60
2018-12-11T02:39:00.033Z,2.60
2018-12-11T02:41:29.346Z,2.60
2018-12-11T02:43:58.643Z,2.60
2018-12-11T02:46:27.915Z,2.60
2018-12-11T02:48:57.204Z,2.60
2018-12-11T02:51:26.595Z,2.60
2018-12-11T02:53:55.916Z,2.60
2018-12-11T02:56:25.260Z,2.60
2018-12-11T02:58:54.575Z,2.60
2018-12-11T03:01:24.159Z,2.70
2018-12-11T03:03:54.071Z,2.70
2018-12-11T03:06:23.382Z,2.70
2018-12-11T03:08:52.689Z,2.70
2018-12-11T03:11:21.971Z,2.70
2018-12-11T03:13:51.380Z,2.80
2018-12-11T03:16:20.765Z,2.80
2018-12-11T03:18:50.060Z,2.80
2018-12-11T03:21:19.355Z,2.70
2018-12-11T03:23:48.766Z,2.70
2018-12-11T03:26:18.135Z,2.60
2018-12-11T03:28:47.475Z,2.60
2018-12-11T03:31:17.088Z,2.50
2018-12-11T03:33:46.518Z,2.50
2018-12-11T03:36:15.768Z,2.50
2018-12-11T03:38:45.084Z,2.50
2018-12-11T03:41:14.993Z,2.50
2018-12-11T03:43:44.493Z,2.60
2018-12-11T03:46:13.794Z,2.60
2018-12-11T03:48:43.035Z,2.60
2018-12-11T03:51:12.297Z,2.70
2018-12-11T03:53:41.583Z,2.70
2018-12-11T03:56:11.009Z,2.70
2018-12-11T03:58:40.303Z,2.70
2018-12-11T04:01:09.707Z,2.80
2018-12-11T04:03:39.080Z,2.80
2018-12-11T04:06:08.359Z,2.80
2018-12-11T04:08:37.656Z,2.80
2018-12-11T04:11:07.012Z,2.80
2018-12-11T04:13:36.350Z,2.80
2018-12-11T04:16:05.649Z,2.80
2018-12-11T04:18:34.954Z,2.80
2018-12-11T04:21:04.266Z,2.80
2018-12-11T04:23:33.656Z,2.80
2018-12-11T04:26:03.104Z,2.80
2018-12-11T04:28:32.356Z,2.80
2018-12-11T04:31:01.726Z,2.80
2018-12-11T04:33:31.025Z,2.80
2018-12-11T04:36:00.423Z,2.70
2018-12-11T04:38:29.708Z,2.70
2018-12-11T04:40:58.999Z,2.70
2018-12-11T04:43:28.282Z,2.70
2018-12-11T04:45:57.642Z,2.70
2018-12-11T04:48:26.972Z,2.70
2018-12-11T04:50:56.289Z,2.70
2018-12-11T04:53:25.672Z,2.70
2018-12-11T04:55:55.003Z,2.70
2018-12-11T04:58:24.427Z,2.70
2018-12-11T05:00:53.792Z,2.70
2018-12-11T05:03:23.054Z,2.70
2018-12-11T05:05:52.375Z,2.70
2018-12-11T05:08:21.631Z,2.70
2018-12-11T05:10:50.979Z,2.80
2018-12-11T05:13:20.270Z,2.70
2018-12-11T05:15:49.635Z,2.70
2018-12-11T05:18:21.176Z,2.70
2018-12-11T05:20:50.227Z,2.70
2018-12-11T05:23:19.527Z,2.70
2018-12-11T05:25:48.869Z,2.70
2018-12-11T05:28:18.200Z,2.70
2018-12-11T05:30:47.516Z,2.60
2018-12-11T05:33:16.870Z,2.60
2018-12-11T05:35:46.256Z,2.60
2018-12-11T05:38:15.576Z,2.60
2018-12-11T05:40:45.007Z,2.60
2018-12-11T05:43:14.437Z,2.70
2018-12-11T05:45:43.763Z,2.60
2018-12-11T05:48:13.047Z,2.60
2018-12-11T05:50:42.480Z,2.70
2018-12-11T05:53:11.750Z,2.70
2018-12-11T05:55:41.159Z,2.70
2018-12-11T05:58:10.779Z,2.70
2018-12-11T06:00:40.060Z,2.70
2018-12-11T06:03:09.472Z,2.70
2018-12-11T06:05:38.770Z,2.70
2018-12-11T06:08:08.068Z,2.70
2018-12-11T06:10:37.397Z,2.70
2018-12-11T06:13:06.769Z,2.70
2018-12-11T06:15:36.086Z,2.70
2018-12-11T06:18:05.445Z,2.70
2018-12-11T06:20:34.796Z,2.70
2018-12-11T06:23:04.136Z,2.70
2018-12-11T06:25:33.593Z,2.70
2018-12-11T06:28:04.021Z,2.70
2018-12-11T06:30:33.585Z,2.70
2018-12-11T06:33:03.727Z,2.70
2018-12-11T06:35:33.165Z,2.70
2018-12-11T06:38:03.282Z,2.70
2018-12-11T06:40:32.760Z,2.70
2018-12-11T06:43:02.088Z,2.70
2018-12-11T06:45:31.440Z,2.70
2018-12-11T06:48:00.827Z,2.70
2018-12-11T06:50:30.387Z,2.60
2018-12-11T06:52:59.688Z,2.70
2018-12-11T06:55:29.037Z,2.60
2018-12-11T06:57:58.372Z,2.60
2018-12-11T07:00:27.776Z,2.60
2018-12-11T07:02:57.135Z,2.50
2018-12-11T07:05:26.465Z,2.50
2018-12-11T07:07:55.788Z,2.50
2018-12-11T07:10:26.016Z,2.60
2018-12-11T07:12:55.480Z,2.60
2018-12-11T07:15:24.904Z,2.60
2018-12-11T07:17:54.201Z,2.60
2018-12-11T07:20:23.533Z,2.70
2018-12-11T07:22:52.861Z,2.60
2018-12-11T07:25:22.495Z,2.60
2018-12-11T07:27:51.864Z,2.60
2018-12-11T07:30:21.288Z,2.60
2018-12-11T07:32:50.636Z,2.60
2018-12-11T07:35:19.949Z,2.60
2018-12-11T07:37:49.249Z,2.50
2018-12-11T07:40:18.658Z,2.50
2018-12-11T07:42:47.999Z,2.50
2018-12-11T07:45:17.289Z,2.60
2018-12-11T07:47:46.549Z,2.60
2018-12-11T07:50:16.044Z,2.70
2018-12-11T07:52:45.401Z,2.70
2018-12-11T07:55:14.832Z,2.80
2018-12-11T07:57:44.134Z,2.80
2018-12-11T08:00:13.563Z,2.90
2018-12-11T08:02:42.879Z,2.90
2018-12-11T08:05:12.349Z,2.90
2018-12-11T08:07:41.705Z,3.00
2018-12-11T08:10:11.019Z,3.10
2018-12-11T08:12:40.369Z,3.00
2018-12-11T08:15:11.348Z,3.00
2018-12-11T08:17:40.789Z,3.00
2018-12-11T08:20:10.332Z,3.00
2018-12-11T08:22:39.659Z,3.10
2018-12-11T08:25:09.075Z,3.10
2018-12-11T08:27:38.371Z,3.10
2018-12-11T08:30:08.016Z,3.10
2018-12-11T08:32:37.418Z,3.10
2018-12-11T08:35:06.891Z,3.10
2018-12-11T08:37:36.241Z,3.10
2018-12-11T08:40:05.908Z,3.10
2018-12-11T08:42:35.184Z,3.00
2018-12-11T08:45:04.896Z,2.90
2018-12-11T08:47:34.260Z,2.90
2018-12-11T08:50:03.650Z,2.90
2018-12-11T08:52:32.958Z,2.90
2018-12-11T08:55:02.251Z,3.00
2018-12-11T08:57:31.539Z,3.00
2018-12-11T09:00:00.857Z,3.10
2018-12-11T09:02:30.179Z,3.20
2018-12-11T09:04:59.434Z,3.30
2018-12-11T09:07:28.940Z,3.40
2018-12-11T09:09:58.240Z,3.40
2018-12-11T09:12:27.535Z,3.40
2018-12-11T09:14:56.880Z,3.40
2018-12-11T09:17:26.150Z,3.50
2018-12-11T09:19:55.544Z,3.50
2018-12-11T09:22:24.978Z,3.60
2018-12-11T09:24:54.260Z,3.60
2018-12-11T09:27:30.313Z,3.60
2018-12-11T09:32:28.733Z,3.70
2018-12-11T09:34:58.004Z,3.70
2018-12-11T09:37:27.356Z,3.70
2018-12-11T09:39:56.615Z,3.80
2018-12-11T09:42:28.089Z,3.90
2018-12-11T09:44:57.322Z,3.90
2018-12-11T09:47:26.576Z,4.00
2018-12-11T09:49:55.949Z,4.00
2018-12-11T09:52:25.299Z,3.90
2018-12-11T09:54:54.682Z,4.60
2018-12-11T09:57:24.028Z,4.70
2018-12-11T09:59:53.274Z,5.20
2018-12-11T10:02:22.567Z,5.80
2018-12-11T10:04:51.949Z,6.20
2018-12-11T10:07:21.224Z,6.10
2018-12-11T10:09:50.534Z,6.20
2018-12-11T10:12:19.810Z,6.10
2018-12-11T10:14:49.073Z,6.00
2018-12-11T10:17:18.383Z,6.00
2018-12-11T10:19:47.664Z,5.80
2018-12-11T10:22:16.953Z,5.80
2018-12-11T10:24:46.232Z,5.60
2018-12-11T10:27:15.673Z,5.40
2018-12-11T10:29:45.018Z,5.40
2018-12-11T10:32:14.413Z,5.20
2018-12-11T10:34:43.690Z,5.10
2018-12-11T10:37:13.019Z,5.10
2018-12-11T10:39:42.454Z,5.00
2018-12-11T10:42:16.304Z,4.80
2018-12-11T10:44:47.335Z,4.70
2018-12-11T10:47:16.735Z,4.70
2018-12-11T10:49:46.036Z,4.70
2018-12-11T10:52:15.353Z,4.60
2018-12-11T10:54:44.631Z,4.60
2018-12-11T10:57:13.930Z,4.50
2018-12-11T10:59:43.244Z,4.30
2018-12-11T11:02:18.016Z,4.20
2018-12-11T11:04:47.411Z,4.10
2018-12-11T11:07:16.704Z,4.10
2018-12-11T11:09:46.704Z,4.10
2018-12-11T11:12:16.151Z,4.10
2018-12-11T11:14:45.557Z,4.10
2018-12-11T11:17:14.840Z,4.10
2018-12-11T11:19:44.125Z,4.00
2018-12-11T11:22:13.532Z,4.00
2018-12-11T11:24:42.810Z,4.10
2018-12-11T11:27:12.137Z,4.00
2018-12-11T11:29:41.416Z,4.00
2018-12-11T11:32:10.699Z,4.00
2018-12-11T11:34:41.434Z,4.00
2018-12-11T11:37:10.736Z,4.00
2018-12-11T11:39:40.033Z,4.20
2018-12-11T11:42:09.357Z,4.30
2018-12-11T11:44:39.909Z,4.30
2018-12-11T11:47:09.805Z,4.50
2018-12-11T11:49:39.099Z,4.50
2018-12-11T11:52:08.520Z,4.50
2018-12-11T11:54:37.783Z,4.70
2018-12-11T11:57:07.051Z,4.60
2018-12-11T11:59:36.407Z,4.50
2018-12-11T12:02:06.101Z,4.50
2018-12-11T12:04:35.451Z,4.40
2018-12-11T12:07:05.023Z,4.50
2018-12-11T12:09:34.282Z,4.50
2018-12-11T12:12:03.540Z,4.70
2018-12-11T12:14:32.828Z,4.90
2018-12-11T12:17:02.169Z,4.90
2018-12-11T12:19:31.605Z,5.00
2018-12-11T12:22:00.915Z,5.10
2018-12-11T12:24:30.202Z,5.10
2018-12-11T12:26:59.469Z,5.20
2018-12-11T12:29:28.716Z,5.10
2018-12-11T12:31:58.198Z,5.20
2018-12-11T12:34:27.557Z,5.00
2018-12-11T12:36:59.272Z,4.80
2018-12-11T12:39:28.590Z,4.70
2018-12-11T12:41:57.902Z,4.70
2018-12-11T12:44:27.209Z,4.70
2018-12-11T12:46:56.569Z,4.70
2018-12-11T12:49:25.899Z,4.70
2018-12-11T12:51:55.168Z,4.60
2018-12-11T12:54:24.436Z,4.60
2018-12-11T12:56:53.659Z,4.60
2018-12-11T12:59:22.910Z,4.70
2018-12-11T13:01:52.130Z,4.60
2018-12-11T13:04:21.463Z,4.60
2018-12-11T13:06:50.848Z,4.50
2018-12-11T13:09:20.202Z,4.40
2018-12-11T13:11:49.431Z,4.30
2018-12-11T13:14:18.810Z,4.20
2018-12-11T13:16:48.079Z,4.20
2018-12-11T13:19:17.319Z,4.10
2018-12-11T13:21:46.676Z,4.20
2018-12-11T13:24:15.925Z,4.30
2018-12-11T13:26:45.166Z,4.30
2018-12-11T13:29:14.432Z,4.30
2018-12-11T13:31:43.721Z,4.40
2018-12-11T13:34:13.020Z,4.40
2018-12-11T13:36:42.265Z,4.40
2018-12-11T13:39:11.551Z,4.40
2018-12-11T13:41:40.830Z,4.40
2018-12-11T13:44:10.608Z,4.30
2018-12-11T13:46:40.292Z,4.30
2018-12-11T13:49:09.838Z,4.30
2018-12-11T13:51:39.196Z,4.20
2018-12-11T13:54:08.575Z,4.30
2018-12-11T13:56:37.827Z,4.30
2018-12-11T13:59:07.136Z,4.30
2018-12-11T14:01:36.392Z,4.30
2018-12-11T14:04:05.796Z,4.40
2018-12-11T14:06:35.039Z,4.30
2018-12-11T14:09:11.318Z,4.30
2018-12-11T14:11:41.290Z,4.30
2018-12-11T14:14:10.616Z,4.40
2018-12-11T14:16:39.892Z,4.50
2018-12-11T14:19:09.326Z,4.30
2018-12-11T14:21:38.781Z,4.30
2018-12-11T14:24:08.068Z,4.20
2018-12-11T14:26:37.312Z,4.20
2018-12-11T14:29:06.768Z,4.10
2018-12-11T14:31:36.216Z,4.10
2018-12-11T14:34:05.648Z,4.00
2018-12-11T14:36:35.188Z,3.90
2018-12-11T14:39:07.355Z,3.90
2018-12-11T14:41:36.634Z,3.90
2018-12-11T14:44:06.111Z,3.80
2018-12-11T14:46:35.456Z,3.90
2018-12-11T14:49:04.812Z,3.90
2018-12-11T14:51:34.264Z,4.00
2018-12-11T14:54:03.880Z,4.00
2018-12-11T14:56:33.247Z,4.00
2018-12-11T14:59:02.604Z,4.00
2018-12-11T15:01:31.825Z,4.00
2018-12-11T15:04:01.111Z,3.90
2018-12-11T15:06:30.433Z,4.00
2018-12-11T15:09:05.033Z,3.90
2018-12-11T15:11:34.284Z,3.90
2018-12-11T15:14:03.701Z,3.80
2018-12-11T15:16:33.060Z,3.80
2018-12-11T15:19:02.420Z,3.80
2018-12-11T15:21:31.666Z,3.70
2018-12-11T15:24:07.377Z,4.10
2018-12-11T15:26:36.636Z,4.00
2018-12-11T15:29:05.876Z,3.90
2018-12-11T15:31:36.226Z,3.80
2018-12-11T15:34:05.681Z,3.80
2018-12-11T15:36:35.040Z,3.80
2018-12-11T15:39:06.309Z,3.80
2018-12-11T15:41:35.768Z,3.70
2018-12-11T15:44:05.241Z,3.70
2018-12-11T15:46:34.728Z,3.70
2018-12-11T15:49:04.106Z,3.60
2018-12-11T15:51:33.409Z,3.60
2018-12-11T15:54:02.755Z,3.60
2018-12-11T15:56:32.180Z,3.50
2018-12-11T15:59:01.580Z,3.40
2018-12-11T16:01:30.934Z,3.40
2018-12-11T16:04:00.301Z,3.20
2018-12-11T16:06:29.701Z,3.10
2018-12-11T16:08:59.243Z,3.00
2018-12-11T16:11:28.744Z,2.90
2018-12-11T16:13:58.113Z,2.80
2018-12-11T16:16:27.980Z,2.70
2018-12-11T16:18:57.514Z,2.60
2018-12-11T16:21:26.771Z,2.50
2018-12-11T16:23:56.086Z,2.40
2018-12-11T16:26:25.394Z,2.30
2018-12-11T16:28:54.677Z,2.30
2018-12-11T16:31:24.168Z,2.40
2018-12-11T16:33:53.509Z,2.50
2018-12-11T16:36:22.907Z,2.60
2018-12-11T16:38:52.287Z,2.60
2018-12-11T16:41:21.680Z,2.70
2018-12-11T16:43:50.979Z,2.70
2018-12-11T16:46:20.382Z,2.70
2018-12-11T16:48:49.642Z,2.70
2018-12-11T16:51:18.899Z,2.80
2018-12-11T16:53:48.183Z,2.80
2018-12-11T16:56:17.481Z,2.80
2018-12-11T16:58:46.820Z,2.80
2018-12-11T17:01:16.121Z,2.80
2018-12-11T17:03:45.342Z,2.80
2018-12-11T17:06:14.630Z,2.80
2018-12-11T17:08:43.915Z,2.80
2018-12-11T17:11:13.184Z,2.80
2018-12-11T17:16:16.435Z,2.70
2018-12-11T17:18:45.740Z,2.70
2018-12-11T17:21:15.100Z,2.70
2018-12-11T17:23:44.354Z,2.80
2018-12-11T17:26:13.704Z,2.80
2018-12-11T17:28:43.064Z,2.80
2018-12-11T17:31:12.433Z,2.80
2018-12-11T17:33:41.707Z,2.90
2018-12-11T17:36:10.983Z,2.90
2018-12-11T17:38:40.263Z,2.90
2018-12-11T17:41:09.635Z,3.10
2018-12-11T17:43:38.936Z,2.90
2018-12-11T17:46:08.288Z,2.90
2018-12-11T17:48:41.546Z,2.90
2018-12-11T17:51:09.218Z,2.90
2018-12-11T17:53:38.883Z,3.00
2018-12-11T17:56:08.285Z,3.00
2018-12-11T17:58:37.616Z,3.00
2018-12-11T18:01:06.828Z,2.90
2018-12-11T18:03:36.187Z,2.90
2018-12-11T18:06:05.542Z,2.90
2018-12-11T18:08:34.775Z,2.90
2018-12-11T18:11:04.133Z,2.90
2018-12-11T18:13:33.432Z,2.90
2018-12-11T18:16:02.749Z,3.00
2018-12-11T18:18:32.030Z,2.90
2018-12-11T18:21:01.322Z,3.00
2018-12-11T18:23:30.581Z,3.00
2018-12-11T18:25:59.887Z,3.00
2018-12-11T18:28:29.193Z,3.00
2018-12-11T18:30:58.475Z,3.00
2018-12-11T18:33:27.909Z,3.00
2018-12-11T18:35:57.409Z,3.00
2018-12-11T18:38:26.837Z,3.10
2018-12-11T18:40:56.287Z,3.10
2018-12-11T18:43:25.607Z,3.10
2018-12-11T18:45:54.947Z,3.00
2018-12-11T18:48:24.469Z,3.10
2018-12-11T18:50:53.816Z,3.00
2018-12-11T18:53:24.243Z,2.90
2018-12-11T18:55:54.024Z,2.90
2018-12-11T18:58:24.722Z,2.90
2018-12-11T19:00:54.226Z,2.90
2018-12-11T19:03:23.774Z,2.90
2018-12-11T19:05:57.985Z,2.90
2018-12-11T19:08:27.363Z,2.90
2018-12-11T19:13:27.112Z,2.90
2018-12-11T19:15:57.448Z,2.90
2018-12-11T19:18:26.980Z,2.80
2018-12-11T19:20:56.683Z,2.80
2018-12-11T19:24:40.360Z,2.90
2018-12-11T19:27:09.679Z,2.80
2018-12-11T19:29:39.570Z,2.70
2018-12-11T19:32:09.031Z,2.70
2018-12-11T19:34:38.377Z,2.60
2018-12-11T19:37:07.755Z,2.60
2018-12-11T19:39:37.057Z,2.60
2018-12-11T19:42:06.789Z,2.50
2018-12-11T19:44:36.039Z,2.40
2018-12-11T19:47:06.332Z,2.40
2018-12-11T19:49:35.635Z,2.30
2018-12-11T19:52:05.249Z,2.30
2018-12-11T19:54:34.564Z,2.20
2018-12-11T19:57:05.110Z,2.10
2018-12-11T19:59:34.418Z,2.00
2018-12-11T20:02:03.746Z,2.00
2018-12-11T20:04:33.094Z,1.90
2018-12-11T20:07:02.344Z,1.90
2018-12-11T20:09:31.877Z,1.90
2018-12-11T20:12:03.743Z,1.80
2018-12-11T20:14:33.034Z,1.80
2018-12-11T20:17:02.834Z,1.70
2018-12-11T20:19:32.158Z,1.70
2018-12-11T20:24:43.770Z,1.60
2018-12-11T20:27:13.329Z,1.50
2018-12-11T20:29:47.832Z,1.40
2018-12-11T20:32:20.665Z,1.30
2018-12-11T20:34:50.239Z,1.30
2018-12-11T20:37:20.287Z,1.20
2018-12-11T20:39:50.032Z,1.20
2018-12-11T20:42:19.364Z,1.10
2018-12-11T20:44:48.754Z,1.10
2018-12-11T20:47:19.875Z,1.00
2018-12-11T20:49:49.102Z,0.90
2018-12-11T20:52:18.525Z,0.90
2018-12-11T20:54:47.918Z,0.90
2018-12-11T20:57:17.369Z,0.80
2018-12-11T20:59:47.065Z,0.80
2018-12-11T21:02:16.345Z,0.80
2018-12-11T21:04:45.904Z,0.70
2018-12-11T21:07:15.342Z,0.70
2018-12-11T21:09:44.812Z,0.70
2018-12-11T21:12:14.277Z,0.70
2018-12-11T21:14:43.559Z,0.60
2018-12-11T21:17:12.841Z,0.50
2018-12-11T21:19:45.245Z,0.50
2018-12-11T21:22:14.555Z,0.50
2018-12-11T21:24:43.935Z,0.50
2018-12-11T21:27:13.564Z,0.40
2018-12-11T21:32:27.116Z,0.30
2018-12-11T21:34:56.383Z,0.30
2018-12-11T21:37:25.873Z,0.20
2018-12-11T21:39:55.176Z,0.20
2018-12-11T21:42:24.546Z,0.20
2018-12-11T21:44:53.987Z,1.00
2018-12-11T21:47:23.324Z,0.10
2018-12-11T21:49:52.591Z,0.10
2018-12-11T21:55:04.894Z,0.00
2018-12-11T21:57:34.227Z,0.00
2018-12-11T22:02:33.102Z,-0.10
2018-12-11T22:05:02.476Z,-0.10
2018-12-11T22:07:31.749Z,-0.10
2018-12-11T22:10:01.052Z,-0.10
2018-12-11T22:12:30.584Z,-0.10
2018-12-11T22:14:59.860Z,-0.20
2018-12-11T22:17:29.196Z,-0.20
2018-12-11T22:19:58.479Z,-0.20
2018-12-11T22:22:27.822Z,-0.20
2018-12-11T22:24:57.148Z,-0.20
2018-12-11T22:27:26.401Z,-0.20
2018-12-11T22:29:55.736Z,-0.10
2018-12-11T22:32:25.021Z,-0.10
2018-12-11T22:34:54.323Z,0.00
2018-12-11T22:37:23.555Z,0.10
2018-12-11T22:39:52.903Z,0.20
2018-12-11T22:42:22.212Z,0.30
2018-12-11T22:44:51.508Z,0.40
2018-12-11T22:47:20.750Z,0.50
2018-12-11T22:49:50.012Z,0.60
2018-12-11T22:52:19.259Z,0.60
2018-12-11T22:54:48.527Z,0.70
2018-12-11T22:57:17.901Z,0.70
2018-12-11T22:59:47.184Z,0.80
2018-12-11T23:02:16.492Z,0.80
2018-12-11T23:04:45.759Z,0.90
2018-12-11T23:07:15.010Z,0.90
2018-12-11T23:09:45.339Z,1.00
2018-12-11T23:12:14.586Z,1.00
2018-12-11T23:14:43.953Z,1.00
2018-12-11T23:17:13.300Z,1.10
2018-12-11T23:19:42.571Z,1.10
2018-12-11T23:22:11.876Z,1.20
2018-12-11T23:24:41.363Z,1.20
2018-12-11T23:27:10.707Z,1.30
2018-12-11T23:29:40.040Z,1.30
2018-12-11T23:32:09.312Z,1.30
2018-12-11T23:34:38.628Z,1.30
2018-12-11T23:37:07.910Z,1.30
2018-12-11T23:39:37.200Z,1.40
2018-12-11T23:42:06.527Z,1.40
2018-12-11T23:44:35.811Z,1.40
2018-12-11T23:47:05.307Z,1.40
2018-12-11T23:49:34.566Z,1.40
2018-12-11T23:52:04.021Z,1.40
2018-12-11T23:54:33.312Z,1.40
2018-12-11T23:57:02.605Z,1.40
2018-12-11T23:59:32.088Z,1.30
